Time;durP1;ratioP1;P1;durP2;ratioP2;P2;SDS_P1;SDS_P2;PMS_P1;PMS_P2;Temp;Humidity;BMP_temperature;BMP_pressure;BME280_temperature;BME280_humidity;BME280_pressure;Samples;Min_cycle;Max_cycle;Signal;HPM_P1;HPM_P2
2023/04/16 00:00:02;;;;;;;0.45;0.45;;;6.20;99.90;;;;;;5084044;29;20028;-67
2023/04/16 00:02:35;;;;;;;0.50;0.50;;;6.20;99.90;;;;;;5077315;29;20051;-70
2023/04/16 00:05:07;;;;;;;0.40;0.40;;;6.10;99.90;;;;;;5064290;28;20052;-72
2023/04/16 00:07:39;;;;;;;0.40;0.40;;;6.10;99.90;;;;;;5081165;29;20063;-72
2023/04/16 00:10:11;;;;;;;0.43;0.43;;;6.00;99.90;;;;;;5062066;28;20050;-73
2023/04/16 00:12:44;;;;;;;0.45;0.45;;;5.80;99.90;;;;;;5064915;28;20047;-70
2023/04/16 00:15:16;;;;;;;0.50;0.50;;;5.70;99.90;;;;;;5111596;28;20036;-69
2023/04/16 00:17:55;;;;;;;0.40;0.40;;;5.70;99.90;;;;;;5090231;29;20036;-71
2023/04/16 00:20:26;;;;;;;0.70;0.70;;;5.60;99.90;;;;;;5073390;28;20061;-69
2023/04/16 00:22:58;;;;;;;0.65;0.65;;;5.50;99.90;;;;;;5073195;29;20060;-69
2023/04/16 00:25:31;;;;;;;0.77;0.63;;;5.40;99.90;;;;;;5090232;29;20050;-73
2023/04/16 00:28:09;;;;;;;0.45;0.45;;;5.30;99.90;;;;;;5090891;29;20042;-68
2023/04/16 00:30:42;;;;;;;0.50;0.50;;;5.20;99.90;;;;;;5084535;29;20345;-71
2023/04/16 00:33:13;;;;;;;0.40;0.40;;;5.20;99.90;;;;;;5117366;28;20039;-72
2023/04/16 00:35:50;;;;;;;0.80;0.80;;;5.10;99.90;;;;;;5091790;28;20493;-73
2023/04/16 00:38:21;;;;;;;0.60;0.60;;;5.00;99.90;;;;;;5089333;29;20038;-69
2023/04/16 00:40:53;;;;;;;0.55;0.55;;;5.00;99.90;;;;;;5091969;29;20027;-68
2023/04/16 00:43:28;;;;;;;0.60;0.60;;;5.00;99.90;;;;;;5089078;29;20032;-70
2023/04/16 00:46:04;;;;;;;0.40;0.40;;;4.90;99.90;;;;;;5087240;29;20036;-70
2023/04/16 00:48:37;;;;;;;0.30;0.30;;;4.80;99.90;;;;;;5072437;29;20065;-71
2023/04/16 00:51:11;;;;;;;0.45;0.45;;;4.80;99.90;;;;;;5087168;29;20043;-72
2023/04/16 00:53:48;;;;;;;0.60;0.60;;;4.70;99.90;;;;;;5072779;29;20363;-68
2023/04/16 00:56:26;;;;;;;0.60;0.60;;;4.70;99.90;;;;;;5088303;29;20037;-69
2023/04/16 00:58:59;;;;;;;0.30;0.30;;;4.70;99.90;;;;;;5088373;29;20035;-71
2023/04/16 01:01:34;;;;;;;0.47;0.47;;;4.70;99.90;;;;;;5134025;23;20310;-93
2023/04/16 01:04:11;;;;;;;0.93;0.93;;;4.70;99.90;;;;;;5203864;28;20031;-93
2023/04/16 01:06:45;;;;;;;0.50;0.50;;;4.60;99.90;;;;;;5111839;28;20336;-95
2023/04/16 01:09:20;;;;;;;0.70;0.70;;;4.60;99.90;;;;;;5121031;28;20220;-92
2023/04/16 01:11:55;;;;;;;0.40;0.40;;;4.60;99.90;;;;;;5120274;29;20031;-93
2023/04/16 01:14:35;;;;;;;0.50;0.50;;;4.60;99.90;;;;;;5121403;28;20039;-93
2023/04/16 01:17:06;;;;;;;1.00;0.60;;;4.60;99.90;;;;;;5121146;29;20036;-92
2023/04/16 01:19:40;;;;;;;0.50;0.50;;;4.60;99.90;;;;;;5121091;28;20035;-91
2023/04/16 01:22:11;;;;;;;1.15;1.15;;;4.60;99.90;;;;;;5119730;29;20045;-93
2023/04/16 01:24:45;;;;;;;0.32;0.32;;;4.60;99.90;;;;;;5135260;29;20213;-91
2023/04/16 01:27:19;;;;;;;0.32;0.32;;;4.50;99.90;;;;;;5119518;29;20321;-93
2023/04/16 01:29:51;;;;;;;0.47;0.47;;;4.50;99.90;;;;;;5121346;29;20023;-94
2023/04/16 01:32:26;;;;;;;0.70;0.70;;;4.50;99.90;;;;;;5121066;29;20035;-93
2023/04/16 01:34:58;;;;;;;0.88;0.88;;;4.50;99.90;;;;;;5120304;28;20039;-94
2023/04/16 01:37:35;;;;;;;1.67;1.58;;;4.60;99.90;;;;;;5137229;28;20043;-93
2023/04/16 01:40:07;;;;;;;1.35;1.25;;;4.50;99.90;;;;;;5120045;29;20037;-94
2023/04/16 01:42:41;;;;;;;0.50;0.50;;;4.50;99.90;;;;;;5121767;29;20035;-93
2023/04/16 01:45:12;;;;;;;0.43;0.43;;;4.40;99.90;;;;;;5123676;29;20027;-92
2023/04/16 01:47:48;;;;;;;0.95;0.68;;;4.30;99.90;;;;;;5122231;29;20034;-94
2023/04/16 01:53:49;;;;;;;0.30;0.30;;;4.60;99.90;;;;;;5138141;28;20034;-91
2023/04/16 01:56:25;;;;;;;0.40;0.40;;;4.60;99.90;;;;;;5121948;29;20042;-90
2023/04/16 01:58:56;;;;;;;0.45;0.45;;;4.60;99.90;;;;;;5120498;29;20038;-92
2023/04/16 02:01:31;;;;;;;0.77;0.77;;;4.60;99.90;;;;;;5121320;28;20039;-94
2023/04/16 02:04:25;;;;;;;0.50;0.50;;;4.60;99.90;;;;;;5143246;29;20034;-93
2023/04/16 02:06:59;;;;;;;0.40;0.40;;;4.70;99.90;;;;;;5120043;29;20035;-93
2023/04/16 02:09:33;;;;;;;0.60;0.60;;;4.70;99.90;;;;;;5120907;29;20035;-93
2023/04/16 02:12:05;;;;;;;0.38;0.38;;;4.70;99.90;;;;;;5120893;29;20024;-92
2023/04/16 02:14:40;;;;;;;0.45;0.45;;;4.80;99.90;;;;;;5120870;29;20054;-92
2023/04/16 02:17:24;;;;;;;0.40;0.40;;;4.80;99.90;;;;;;5120637;29;20032;-92
2023/04/16 02:19:55;;;;;;;0.70;0.70;;;4.70;99.90;;;;;;5147367;28;20031;-92
2023/04/16 02:22:29;;;;;;;0.60;0.60;;;4.60;99.90;;;;;;5133382;28;20027;-92
2023/04/16 02:25:04;;;;;;;0.45;0.45;;;4.60;99.90;;;;;;5132305;28;20042;-92
2023/04/16 02:27:38;;;;;;;0.60;0.60;;;4.50;99.90;;;;;;5132071;28;20015;-92
2023/04/16 02:30:15;;;;;;;0.43;0.43;;;4.40;99.90;;;;;;5132158;28;20038;-92
2023/04/16 02:32:48;;;;;;;0.57;0.57;;;4.40;99.90;;;;;;5134790;23;20043;-71
2023/04/16 02:35:24;;;;;;;0.77;0.77;;;4.40;99.90;;;;;;5091440;29;20033;-71
2023/04/16 02:37:59;;;;;;;0.50;0.50;;;4.40;99.90;;;;;;5108223;29;20053;-71
2023/04/16 02:40:31;;;;;;;0.50;0.50;;;4.50;99.90;;;;;;5077028;28;20036;-68
2023/04/16 02:43:02;;;;;;;0.47;0.47;;;4.50;99.90;;;;;;5103785;29;20035;-73
2023/04/16 02:45:36;;;;;;;0.50;0.50;;;4.60;99.90;;;;;;5106961;29;20020;-73
2023/04/16 02:48:09;;;;;;;1.00;0.70;;;4.60;99.90;;;;;;5092855;29;20065;-72
2023/04/16 02:50:40;;;;;;;0.68;0.68;;;4.70;99.90;;;;;;5113196;28;20042;-71
2023/04/16 02:53:11;;;;;;;0.63;0.63;;;4.70;99.90;;;;;;5131561;28;20027;-70
2023/04/16 02:55:54;;;;;;;0.60;0.60;;;4.80;99.90;;;;;;5093555;29;20039;-68
2023/04/16 02:58:25;;;;;;;0.68;0.68;;;4.80;99.90;;;;;;5094112;29;20416;-72
2023/04/16 03:00:59;;;;;;;0.45;0.45;;;4.90;99.90;;;;;;5080800;28;20027;-68
2023/04/16 03:03:33;;;;;;;0.50;0.50;;;4.80;99.90;;;;;;5160584;28;20058;-70
2023/04/16 03:06:04;;;;;;;0.75;0.75;;;4.80;99.90;;;;;;5092633;28;20054;-71
2023/04/16 03:08:38;;;;;;;0.70;0.70;;;4.90;99.90;;;;;;5114841;28;20039;-71
2023/04/16 03:11:14;;;;;;;0.70;0.70;;;4.90;99.90;;;;;;5115769;28;20493;-69
2023/04/16 03:13:45;;;;;;;0.60;0.60;;;4.80;99.90;;;;;;5131901;28;20045;-69
2023/04/16 03:16:19;;;;;;;0.80;0.80;;;4.90;99.90;;;;;;5130242;28;20041;-72
2023/04/16 03:18:50;;;;;;;0.57;0.57;;;4.90;99.90;;;;;;5122591;28;20460;-71
2023/04/16 03:21:26;;;;;;;0.52;0.52;;;5.00;99.90;;;;;;5129563;28;20043;-72
2023/04/16 03:24:02;;;;;;;0.47;0.47;;;5.00;99.90;;;;;;5126009;28;20039;-71
2023/04/16 03:26:38;;;;;;;0.68;0.55;;;4.90;99.90;;;;;;5133086;28;20040;-70
2023/04/16 03:29:12;;;;;;;0.80;0.80;;;5.00;99.90;;;;;;5103426;28;20042;-72
2023/04/16 03:31:43;;;;;;;0.43;0.43;;;5.10;99.90;;;;;;5136376;28;20041;-69
2023/04/16 03:34:14;;;;;;;0.40;0.40;;;5.20;99.90;;;;;;5110120;28;20046;-70
2023/04/16 03:36:46;;;;;;;0.60;0.60;;;5.30;99.90;;;;;;5111747;28;20185;-69
2023/04/16 03:39:20;;;;;;;0.45;0.45;;;5.30;99.90;;;;;;5111082;29;20039;-71
2023/04/16 03:41:51;;;;;;;0.60;0.60;;;5.30;99.90;;;;;;5160837;28;20039;-72
2023/04/16 03:44:23;;;;;;;0.70;0.70;;;5.40;99.90;;;;;;5177257;28;20041;-70
2023/04/16 03:46:55;;;;;;;0.82;0.82;;;5.40;99.90;;;;;;5094523;28;20031;-72
2023/04/16 03:49:32;;;;;;;1.10;1.10;;;5.50;99.90;;;;;;5112301;28;20239;-70
2023/04/16 03:52:10;;;;;;;0.40;0.40;;;5.40;99.90;;;;;;5095555;28;20046;-71
2023/04/16 03:54:41;;;;;;;0.60;0.60;;;5.40;99.90;;;;;;5113828;28;20411;-73
2023/04/16 03:57:14;;;;;;;0.88;0.88;;;5.40;99.90;;;;;;5113444;28;20046;-70
2023/04/16 03:59:46;;;;;;;0.43;0.43;;;5.60;99.90;;;;;;5098679;28;20030;-75
2023/04/16 04:02:19;;;;;;;0.70;0.70;;;5.70;99.90;;;;;;5123984;28;20027;-72
2023/04/16 04:04:53;;;;;;;0.90;0.70;;;5.80;99.90;;;;;;5081009;28;20642;-70
2023/04/16 04:07:24;;;;;;;0.77;0.77;;;5.90;99.90;;;;;;5100441;29;20050;-72
2023/04/16 04:09:58;;;;;;;0.60;0.60;;;5.90;99.90;;;;;;5090628;28;20040;-69
2023/04/16 04:12:33;;;;;;;0.55;0.55;;;6.00;99.90;;;;;;5110282;29;20037;-69
2023/04/16 04:15:05;;;;;;;0.93;0.93;;;6.00;99.90;;;;;;5174763;28;20038;-74
2023/04/16 04:17:37;;;;;;;0.93;0.93;;;6.00;99.90;;;;;;5076853;29;20040;-71
2023/04/16 04:20:11;;;;;;;0.60;0.60;;;5.90;99.90;;;;;;5093157;29;20035;-70
2023/04/16 04:22:42;;;;;;;0.73;0.73;;;5.90;99.90;;;;;;5083604;28;20043;-70
2023/04/16 04:25:14;;;;;;;0.60;0.60;;;5.90;99.90;;;;;;5090937;28;20032;-68
2023/04/16 04:27:48;;;;;;;0.60;0.60;;;5.90;99.90;;;;;;5068773;28;20043;-72
2023/04/16 04:30:19;;;;;;;1.05;1.05;;;5.80;99.90;;;;;;5105523;29;20031;-72
2023/04/16 04:32:51;;;;;;;0.80;0.80;;;5.70;99.90;;;;;;5125223;28;20031;-71
2023/04/16 04:35:24;;;;;;;0.47;0.47;;;5.70;99.90;;;;;;5077523;29;20601;-71
2023/04/16 04:37:58;;;;;;;0.90;0.90;;;5.80;99.90;;;;;;5124861;28;20039;-69
2023/04/16 04:40:30;;;;;;;0.70;0.70;;;5.80;99.90;;;;;;5107685;29;20039;-71
2023/04/16 04:43:06;;;;;;;1.00;0.77;;;6.00;99.90;;;;;;5092414;29;20376;-72
2023/04/16 04:45:37;;;;;;;0.50;0.50;;;6.00;99.90;;;;;;5074204;29;20039;-68
2023/04/16 04:48:09;;;;;;;0.68;0.68;;;6.10;99.90;;;;;;5110206;29;20337;-71
2023/04/16 04:50:45;;;;;;;0.60;0.60;;;6.10;99.90;;;;;;5113502;28;20027;-69
2023/04/16 04:53:18;;;;;;;1.38;1.27;;;6.10;99.90;;;;;;5092946;29;20035;-73
2023/04/16 04:55:53;;;;;;;0.85;0.85;;;6.10;99.90;;;;;;5109397;29;20522;-71
2023/04/16 04:58:29;;;;;;;0.75;0.75;;;6.30;99.90;;;;;;5075258;29;20035;-68
2023/04/16 05:01:03;;;;;;;0.90;0.90;;;6.30;99.90;;;;;;5106636;29;20051;-70
2023/04/16 05:03:40;;;;;;;1.02;1.02;;;6.40;99.90;;;;;;5093876;28;20055;-68
2023/04/16 05:06:11;;;;;;;1.00;1.00;;;6.50;99.90;;;;;;5131994;28;20472;-71
2023/04/16 05:08:45;;;;;;;0.57;0.57;;;6.50;99.90;;;;;;5084782;28;20054;-75
2023/04/16 05:11:18;;;;;;;1.10;1.10;;;6.50;99.90;;;;;;5075570;28;20038;-72
2023/04/16 05:13:50;;;;;;;0.98;0.98;;;6.60;99.90;;;;;;5076269;28;20526;-71
2023/04/16 05:16:26;;;;;;;0.98;0.98;;;6.70;99.90;;;;;;5076032;28;20556;-70
2023/04/16 05:19:00;;;;;;;1.15;1.10;;;6.70;99.90;;;;;;5092803;28;20255;-72
2023/04/16 05:21:37;;;;;;;1.45;1.35;;;6.70;99.90;;;;;;5092613;28;20041;-71
2023/04/16 05:24:11;;;;;;;0.80;0.80;;;6.60;99.90;;;;;;5092055;28;20027;-69
2023/04/16 05:26:42;;;;;;;0.93;0.93;;;6.80;99.90;;;;;;5084701;28;20262;-73
2023/04/16 05:29:16;;;;;;;0.68;0.68;;;6.80;99.90;;;;;;5072599;28;20032;-71
2023/04/16 05:31:49;;;;;;;1.00;1.00;;;6.90;99.90;;;;;;5091378;28;20049;-70
2023/04/16 05:34:21;;;;;;;0.95;0.95;;;6.80;99.90;;;;;;5089523;28;20035;-71
2023/04/16 05:36:54;;;;;;;0.82;0.82;;;6.90;99.90;;;;;;5106040;29;20031;-67
2023/04/16 05:39:25;;;;;;;1.13;1.13;;;7.10;99.90;;;;;;5094239;28;20023;-70
2023/04/16 05:41:57;;;;;;;1.10;1.10;;;7.30;99.90;;;;;;5077441;29;20041;-72
2023/04/16 05:44:30;;;;;;;0.77;0.77;;;7.50;99.90;;;;;;5091197;29;20457;-72
2023/04/16 05:47:01;;;;;;;1.07;1.07;;;7.50;99.90;;;;;;5107948;29;20605;-71
2023/04/16 05:49:34;;;;;;;0.70;0.70;;;7.50;99.90;;;;;;5108384;28;20831;-73
2023/04/16 05:52:06;;;;;;;0.77;0.77;;;7.80;99.90;;;;;;5106131;28;20051;-73
2023/04/16 05:54:39;;;;;;;1.63;1.45;;;8.00;99.90;;;;;;5108560;28;20034;-72
2023/04/16 05:57:12;;;;;;;1.53;1.43;;;8.10;99.90;;;;;;5104074;28;20045;-71
2023/04/16 05:59:43;;;;;;;1.23;1.05;;;8.30;99.90;;;;;;5083125;28;20349;-73
2023/04/16 06:02:14;;;;;;;1.10;1.10;;;8.50;99.90;;;;;;5098982;28;20584;-70
2023/04/16 06:04:46;;;;;;;1.08;1.08;;;8.60;99.90;;;;;;5100138;28;20047;-71
2023/04/16 06:07:19;;;;;;;1.65;1.55;;;8.80;99.90;;;;;;5113485;28;20039;-70
2023/04/16 06:09:53;;;;;;;1.75;1.60;;;9.10;99.90;;;;;;5109054;29;20035;-71
2023/04/16 06:12:26;;;;;;;3.53;1.65;;;9.30;99.90;;;;;;5140957;28;20163;-72
2023/04/16 06:14:57;;;;;;;1.25;1.15;;;9.50;99.90;;;;;;5108137;29;20039;-69
2023/04/16 06:17:28;;;;;;;1.20;1.10;;;9.40;1.00;;;;;;5105776;29;20035;-72
2023/04/16 06:19:59;;;;;;;1.23;1.17;;;9.20;72.10;;;;;;5109451;29;20037;-70
2023/04/16 06:22:33;;;;;;;0.82;0.82;;;9.40;57.10;;;;;;5092640;28;20043;-72
2023/04/16 06:25:05;;;;;;;0.98;0.98;;;9.70;33.60;;;;;;5097393;28;20054;-71
2023/04/16 06:27:36;;;;;;;1.23;0.80;;;9.40;33.50;;;;;;5110093;28;20019;-72
2023/04/16 06:30:14;;;;;;;3.33;2.20;;;9.10;9.40;;;;;;5112131;29;20102;-72
2023/04/16 06:32:48;;;;;;;1.00;0.98;;;9.00;98.40;;;;;;5104898;28;20038;-69
2023/04/16 06:35:23;;;;;;;0.90;0.90;;;8.90;95.40;;;;;;5102668;28;20049;-73
2023/04/16 06:37:54;;;;;;;1.27;1.25;;;9.00;99.90;;;;;;5117178;28;20575;-72
2023/04/16 06:40:25;;;;;;;1.23;1.23;;;9.10;90.30;;;;;;5126769;28;20038;-74
2023/04/16 06:42:56;;;;;;;1.17;1.10;;;9.20;83.20;;;;;;5110450;28;20039;-71
2023/04/16 06:45:33;;;;;;;0.70;0.70;;;9.00;51.90;;;;;;5121282;28;20037;-69
2023/04/16 06:48:05;;;;;;;1.08;0.98;;;9.00;99.90;;;;;;5077876;28;20027;-67
2023/04/16 06:50:39;;;;;;;0.75;0.75;;;9.10;52.30;;;;;;5081185;28;20045;-71
2023/04/16 06:53:14;;;;;;;1.10;1.10;;;9.20;94.90;;;;;;5097554;28;20049;-71
2023/04/16 06:55:48;;;;;;;1.00;1.00;;;9.20;54.70;;;;;;5080742;28;20049;-73
2023/04/16 06:58:19;;;;;;;0.80;0.80;;;9.30;45.40;;;;;;5099102;28;20045;-69
2023/04/16 07:00:53;;;;;;;0.75;0.75;;;9.60;3.50;;;;;;5110820;28;20035;-71
2023/04/16 07:03:30;;;;;;;2.03;1.00;;;9.70;1.00;;;;;;5111738;28;20049;-72
2023/04/16 07:06:01;;;;;;;1091.78;698.15;;;9.80;1.00;;;;;;5098280;28;20052;-71
2023/04/16 07:08:32;;;;;;;303.73;261.27;;;9.90;21.30;;;;;;5110352;28;20511;-71
2023/04/16 07:11:04;;;;;;;578.42;367.67;;;9.70;9.20;;;;;;5112011;28;20035;-71
2023/04/16 07:13:37;;;;;;;101.40;91.30;;;9.80;8.60;;;;;;5121878;28;20039;-70
2023/04/16 07:16:11;;;;;;;10.45;9.55;;;9.70;1.00;;;;;;5087542;28;20087;-75
2023/04/16 07:18:45;;;;;;;20.52;18.58;;;9.60;1.00;;;;;;5086300;28;20286;-75
2023/04/16 07:21:22;;;;;;;6.78;4.70;;;10.00;52.30;;;;;;5118552;28;20039;-74
2023/04/16 07:23:53;;;;;;;2.30;2.10;;;10.40;1.00;;;;;;5123651;28;20031;-70
2023/04/16 07:26:27;;;;;;;2.47;2.28;;;10.00;1.00;;;;;;5125392;28;20027;-73
2023/04/16 07:29:04;;;;;;;57.40;34.75;;;10.10;1.00;;;;;;5124096;29;20269;-72
2023/04/16 07:31:37;;;;;;;3.47;3.28;;;10.10;1.00;;;;;;5115371;29;20023;-73
2023/04/16 07:34:08;;;;;;;1.92;1.83;;;9.80;1.00;;;;;;5106244;28;20046;-71
2023/04/16 07:36:40;;;;;;;11.38;10.30;;;9.60;1.00;;;;;;5094551;28;20039;-70
2023/04/16 07:39:12;;;;;;;1.90;1.80;;;10.00;1.00;;;;;;5078430;28;20057;-72
2023/04/16 07:41:45;;;;;;;3.97;3.67;;;10.30;1.00;;;;;;5094484;28;20428;-72
2023/04/16 07:44:19;;;;;;;2.60;2.47;;;10.50;1.00;;;;;;5094966;29;20527;-68
2023/04/16 07:46:50;;;;;;;1.42;1.33;;;10.60;1.00;;;;;;5074140;29;20244;-72
2023/04/16 07:49:24;;;;;;;1.25;1.23;;;10.30;1.00;;;;;;5112361;29;20041;-72
2023/04/16 07:51:58;;;;;;;2.72;1.80;;;10.20;1.00;;;;;;5112081;29;20027;-71
2023/04/16 07:54:29;;;;;;;1.52;1.42;;;10.10;1.00;;;;;;5092252;28;20039;-71
2023/04/16 07:57:01;;;;;;;2.20;2.00;;;10.30;1.00;;;;;;5118832;28;20052;-71
2023/04/16 07:59:32;;;;;;;1.30;1.27;;;10.40;1.00;;;;;;5082407;29;20041;-71
2023/04/16 08:02:05;;;;;;;2.17;2.08;;;10.50;1.00;;;;;;5115378;28;20046;-70
2023/04/16 08:04:36;;;;;;;2.53;1.33;;;10.90;1.00;;;;;;5098438;28;20685;-71
2023/04/16 08:07:07;;;;;;;1.30;1.30;;;11.10;99.90;;;;;;5128979;28;20035;-68
2023/04/16 08:09:49;;;;;;;1.50;1.40;;;10.70;99.90;;;;;;5095061;29;20023;-72
2023/04/16 08:12:23;;;;;;;6.03;5.60;;;10.50;1.00;;;;;;5111238;28;20043;-73
2023/04/16 08:14:55;;;;;;;5.55;5.03;;;10.50;1.00;;;;;;5094641;28;20606;-72
2023/04/16 08:17:28;;;;;;;5.32;4.93;;;10.80;1.00;;;;;;5125683;28;20035;-72
2023/04/16 08:20:00;;;;;;;2.08;1.98;;;11.00;1.00;;;;;;5106140;28;20561;-74
2023/04/16 08:22:35;;;;;;;2.88;2.67;;;11.00;1.00;;;;;;5091219;29;20204;-71
2023/04/16 08:25:07;;;;;;;1.45;1.30;;;10.80;1.00;;;;;;5091831;29;20036;-73
2023/04/16 08:27:42;;;;;;;1.00;1.00;;;11.00;1.00;;;;;;5108424;28;20547;-70
2023/04/16 08:30:15;;;;;;;2.25;2.08;;;11.30;1.00;;;;;;5091093;29;20473;-72
2023/04/16 08:32:49;;;;;;;1.80;1.70;;;11.30;99.90;;;;;;5091887;28;20382;-71
2023/04/16 08:35:20;;;;;;;1.67;1.58;;;11.20;99.90;;;;;;5077855;28;20039;-69
2023/04/16 08:37:52;;;;;;;1.30;1.30;;;11.60;1.00;;;;;;5171230;28;20035;-74
2023/04/16 08:40:30;;;;;;;2.63;1.63;;;11.80;1.00;;;;;;5062893;28;20031;-71
2023/04/16 08:43:04;;;;;;;1.30;1.30;;;12.10;1.00;;;;;;5094370;29;20039;-73
2023/04/16 08:45:39;;;;;;;1.45;1.35;;;12.30;1.00;;;;;;5076983;28;20048;-73
2023/04/16 08:48:18;;;;;;;1.58;1.48;;;13.00;1.00;;;;;;5077783;28;20031;-73
2023/04/16 08:50:53;;;;;;;2.97;2.78;;;13.60;1.00;;;;;;5108785;29;20031;-73
2023/04/16 08:54:03;;;;;;;2.00;1.90;;;13.60;1.00;;;;;;5095003;28;20031;-71
2023/04/16 08:56:36;;;;;;;1.67;1.58;;;13.40;1.00;;;;;;5109871;28;20562;-73
2023/04/16 08:59:15;;;;;;;1.48;1.38;;;13.00;1.00;;;;;;5103686;28;20039;-70
2023/04/16 09:01:51;;;;;;;1.00;1.00;;;13.30;99.90;;;;;;5091852;28;20050;-72
2023/04/16 09:04:28;;;;;;;1.75;1.33;;;13.10;99.90;;;;;;5079145;28;20044;-77
2023/04/16 09:07:01;;;;;;;0.90;0.90;;;13.40;1.00;;;;;;5096421;29;20031;-71
2023/04/16 09:09:38;;;;;;;1.17;1.15;;;13.30;1.00;;;;;;5124569;28;20023;-72
2023/04/16 09:12:14;;;;;;;1.08;1.08;;;12.90;1.00;;;;;;5091630;29;20039;-72
2023/04/16 09:14:49;;;;;;;1.23;1.13;;;12.40;1.00;;;;;;5157917;28;20027;-73
2023/04/16 09:17:26;;;;;;;0.80;0.80;;;12.10;1.00;;;;;;5118821;28;20114;-76
2023/04/16 09:20:04;;;;;;;1.30;1.20;;;12.30;1.00;;;;;;5107282;28;20034;-72
2023/04/16 09:22:36;;;;;;;1.20;1.20;;;12.50;1.00;;;;;;5114865;28;20055;-73
2023/04/16 09:25:11;;;;;;;0.90;0.90;;;12.70;1.00;;;;;;5096837;28;20619;-72
2023/04/16 09:27:43;;;;;;;1.17;1.08;;;12.80;1.00;;;;;;5175307;28;20043;-71
2023/04/16 09:30:36;;;;;;;1.90;1.80;;;12.90;1.00;;;;;;5102177;28;20044;-71
2023/04/16 09:33:23;;;;;;;59.42;53.97;;;13.20;1.00;;;;;;5112413;28;20469;-73
2023/04/16 09:36:00;;;;;;;7.20;6.57;;;13.60;1.00;;;;;;5112007;28;20035;-73
2023/04/16 09:38:57;;;;;;;3.22;3.03;;;14.10;99.90;;;;;;5124416;28;20043;-75
2023/04/16 09:41:34;;;;;;;2.17;2.08;;;13.50;1.00;;;;;;5094840;28;20036;-72
2023/04/16 09:44:06;;;;;;;1.40;1.40;;;14.10;1.00;;;;;;5088976;28;20044;-69
2023/04/16 09:46:40;;;;;;;1.42;1.33;;;13.80;99.90;;;;;;5171892;28;20473;-71
2023/04/16 09:49:16;;;;;;;0.98;0.98;;;13.20;99.90;;;;;;5090124;29;20047;-70
2023/04/16 09:51:53;;;;;;;2.95;2.60;;;13.50;1.00;;;;;;5072170;28;20036;-73
2023/04/16 09:54:30;;;;;;;2.92;2.08;;;13.90;99.90;;;;;;5089536;28;20039;-72
2023/04/16 09:57:04;;;;;;;1.70;1.60;;;14.50;99.90;;;;;;5098575;28;20528;-73
2023/04/16 09:59:36;;;;;;;2.00;1.90;;;14.20;1.00;;;;;;5104495;28;20037;-73
2023/04/16 10:02:08;;;;;;;1.90;1.80;;;14.30;1.00;;;;;;5072579;28;20031;-73
2023/04/16 10:04:47;;;;;;;1.35;1.35;;;14.30;1.00;;;;;;5098655;28;20642;-71
2023/04/16 10:07:24;;;;;;;1.33;1.33;;;13.90;1.00;;;;;;5118256;28;20042;-71
2023/04/16 10:09:56;;;;;;;1.33;1.30;;;14.60;99.90;;;;;;5109218;29;20031;-74
2023/04/16 10:12:29;;;;;;;1.52;1.45;;;15.60;1.00;;;;;;5073223;28;20032;-73
2023/04/16 10:15:02;;;;;;;1.20;1.20;;;15.60;1.00;;;;;;5100116;28;20415;-72
2023/04/16 10:17:40;;;;;;;1.70;1.60;;;15.50;99.90;;;;;;5076628;28;20238;-72
2023/04/16 10:20:14;;;;;;;1.75;1.65;;;14.80;99.90;;;;;;5092277;28;20477;-71
2023/04/16 10:22:51;;;;;;;2.00;1.90;;;14.40;1.00;;;;;;5093218;28;20047;-71
2023/04/16 10:25:26;;;;;;;0.88;0.88;;;14.20;1.00;;;;;;5108549;29;20042;-74
2023/04/16 10:28:03;;;;;;;0.90;0.90;;;14.00;1.00;;;;;;5091882;28;20034;-73
2023/04/16 10:30:38;;;;;;;1.63;1.52;;;15.10;99.90;;;;;;5169740;28;20039;-73
2023/04/16 10:33:09;;;;;;;1.48;1.38;;;15.80;99.90;;;;;;5098413;28;20046;-75
2023/04/16 10:35:40;;;;;;;0.85;0.85;;;16.20;1.00;;;;;;5074387;28;20044;-73
2023/04/16 10:38:26;;;;;;;1.48;1.38;;;16.50;1.00;;;;;;5142233;28;20045;-73
2023/04/16 10:41:04;;;;;;;1.08;1.08;;;15.90;1.00;;;;;;5116844;28;20046;-74
2023/04/16 10:43:44;;;;;;;1.58;1.48;;;15.50;99.90;;;;;;5135676;28;20045;-74
2023/04/16 10:46:28;;;;;;;1.30;1.25;;;15.40;99.90;;;;;;5102518;28;20027;-72
2023/04/16 10:49:10;;;;;;;1.50;1.40;;;15.60;1.00;;;;;;5126266;28;20037;-72
2023/04/16 10:51:50;;;;;;;1.50;1.40;;;16.00;99.90;;;;;;5075325;28;20290;-73
2023/04/16 10:54:33;;;;;;;1.60;1.50;;;16.10;99.90;;;;;;5090657;28;20032;-70
2023/04/16 10:57:11;;;;;;;1.58;1.50;;;15.80;1.00;;;;;;5096515;28;20034;-70
2023/04/16 10:59:46;;;;;;;1.20;1.20;;;16.80;1.00;;;;;;5100805;28;20492;-70
2023/04/16 11:02:17;;;;;;;1.17;1.17;;;17.70;1.00;;;;;;5108585;29;20365;-71
2023/04/16 11:04:49;;;;;;;1.30;1.30;;;18.60;1.00;;;;;;5083292;28;20055;-73
2023/04/16 11:07:32;;;;;;;1.60;1.50;;;18.40;99.90;;;;;;5152356;28;20352;-73
2023/04/16 11:10:05;;;;;;;1.33;1.23;;;18.90;99.90;;;;;;5092632;28;20053;-77
2023/04/16 11:12:43;;;;;;;1.35;1.25;;;18.40;86.40;;;;;;5107091;28;20097;-74
2023/04/16 11:15:19;;;;;;;1.00;1.00;;;19.10;99.90;;;;;;5093080;28;20055;-73
2023/04/16 11:17:54;;;;;;;0.93;0.93;;;20.30;99.90;;;;;;5102665;28;20061;-73
2023/04/16 11:20:32;;;;;;;1.05;1.05;;;19.70;1.00;;;;;;5123122;28;20035;-71
2023/04/16 11:23:12;;;;;;;3.38;2.85;;;17.60;1.00;;;;;;5082278;28;20198;-74
2023/04/16 11:25:46;;;;;;;1.65;1.55;;;17.20;1.00;;;;;;5085105;28;20047;-74
2023/04/16 11:28:20;;;;;;;1.15;1.13;;;18.10;1.00;;;;;;5100683;28;20701;-71
2023/04/16 11:30:51;;;;;;;2.92;2.13;;;19.10;1.00;;;;;;5145807;28;20054;-75
2023/04/16 11:33:26;;;;;;;1.25;1.25;;;20.00;1.00;;;;;;5073012;28;20400;-72
2023/04/16 11:36:00;;;;;;;0.95;0.95;;;21.10;99.90;;;;;;5102663;28;20047;-74
2023/04/16 11:38:34;;;;;;;0.97;0.97;;;21.60;99.90;;;;;;5106524;28;20041;-71
2023/04/16 11:41:06;;;;;;;0.90;0.90;;;22.30;1.00;;;;;;5102085;28;20031;-75
2023/04/16 11:43:39;;;;;;;1.63;1.52;;;23.40;1.00;;;;;;5103430;28;20277;-75
2023/04/16 11:46:10;;;;;;;2.67;2.47;;;23.90;99.90;;;;;;5116824;28;20035;-73
2023/04/16 11:48:51;;;;;;;1.08;1.00;;;24.40;1.00;;;;;;5124154;28;20033;-76
2023/04/16 11:51:27;;;;;;;1.23;1.13;;;21.60;1.00;;;;;;5121168;28;20020;-74
2023/04/16 11:54:02;;;;;;;1.42;1.33;;;19.00;1.00;;;;;;5090843;28;20035;-74
2023/04/16 11:56:38;;;;;;;;;;;15.80;99.90;;;;;;5090512;28;20027;-74
2023/04/16 11:59:10;;;;;;;1.77;1.67;;;14.30;1.00;;;;;;5103835;28;19913;-74
2023/04/16 12:01:45;;;;;;;1.65;1.55;;;13.50;1.00;;;;;;5083449;28;20038;-70
2023/04/16 12:04:23;;;;;;;1.80;1.70;;;12.70;99.90;;;;;;5090874;28;20054;-74
2023/04/16 12:07:12;;;;;;;0.82;0.80;;;12.10;1.00;;;;;;5238719;28;20025;-74
2023/04/16 12:09:45;;;;;;;1.45;1.35;;;11.90;21.40;;;;;;5196757;28;20347;-73
2023/04/16 12:12:30;;;;;;;0.82;0.82;;;11.70;99.90;;;;;;5207641;28;20042;-72
2023/04/16 12:15:04;;;;;;;;;;;11.80;99.90;;;;;;5223799;28;20024;-73
2023/04/16 12:17:36;;;;;;;1.80;0.95;;;11.80;99.90;;;;;;5199689;28;19923;-73
2023/04/16 12:20:10;;;;;;;0.98;0.98;;;11.70;99.90;;;;;;5220665;28;20032;-73
2023/04/16 12:22:51;;;;;;;1.13;0.98;;;11.90;1.00;;;;;;5220983;28;20025;-75
2023/04/16 12:25:23;;;;;;;0.75;0.75;;;11.90;99.90;;;;;;5221616;28;20044;-74
2023/04/16 12:27:58;;;;;;;1.02;1.00;;;12.00;99.90;;;;;;5220616;28;20032;-73
2023/04/16 12:30:34;;;;;;;;;;;12.00;99.90;;;;;;5203424;28;20226;-74
2023/04/16 12:33:14;;;;;;;13.50;7.15;;;12.20;1.00;;;;;;5223215;28;19916;-75
2023/04/16 12:35:46;;;;;;;1.40;1.30;;;12.00;1.00;;;;;;5225045;28;20037;-74
2023/04/16 12:38:20;;;;;;;0.90;0.90;;;12.00;1.00;;;;;;5210737;28;20028;-73
2023/04/16 12:40:55;;;;;;;1.50;1.40;;;12.00;1.00;;;;;;5223725;28;20024;-73
2023/04/16 12:43:28;;;;;;;3.08;2.88;;;12.00;1.00;;;;;;5210276;28;20040;-71
2023/04/16 12:46:00;;;;;;;1.33;1.23;;;12.00;1.00;;;;;;5206675;28;20028;-73
2023/04/16 12:48:37;;;;;;;2.10;2.00;;;11.90;99.90;;;;;;5210607;28;20044;-73
2023/04/16 12:51:08;;;;;;;1.20;1.20;;;12.10;1.00;;;;;;5230558;28;20028;-73
2023/04/16 12:53:39;;;;;;;1.38;1.27;;;12.10;1.00;;;;;;5229619;28;20032;-74
2023/04/16 12:56:10;;;;;;;0.93;0.93;;;12.30;99.90;;;;;;5228923;28;20028;-73
2023/04/16 12:58:41;;;;;;;1.20;1.20;;;12.20;99.90;;;;;;5224379;28;20032;-72
2023/04/16 13:01:13;;;;;;;5.30;4.88;;;12.20;1.00;;;;;;5224574;28;20032;-72
2023/04/16 13:03:49;;;;;;;3.80;3.60;;;12.30;1.00;;;;;;5223505;28;20040;-73
2023/04/16 13:06:21;;;;;;;5.63;5.22;;;12.40;99.90;;;;;;5217440;28;20052;-73
2023/04/16 13:08:52;;;;;;;1.60;1.50;;;12.50;1.00;;;;;;5225758;28;20013;-72
2023/04/16 13:11:25;;;;;;;1.30;1.30;;;12.50;99.90;;;;;;5228881;28;20477;-72
2023/04/16 13:13:57;;;;;;;1.05;0.98;;;12.80;1.00;;;;;;5229729;28;20039;-73
2023/04/16 13:16:30;;;;;;;0.77;0.77;;;12.90;1.00;;;;;;5204323;28;20157;-75
2023/04/16 13:19:01;;;;;;;1.08;1.08;;;13.30;1.00;;;;;;5228272;28;20447;-72
2023/04/16 13:21:36;;;;;;;1.10;1.10;;;13.30;1.00;;;;;;5225154;28;20032;-74
2023/04/16 13:24:12;;;;;;;1.00;1.00;;;13.30;1.00;;;;;;5224892;28;20040;-74
2023/04/16 13:26:43;;;;;;;1.23;1.23;;;13.30;1.00;;;;;;5210188;28;20200;-70
2023/04/16 13:29:17;;;;;;;1.20;1.20;;;13.70;1.00;;;;;;5230463;28;20442;-73
2023/04/16 13:31:48;;;;;;;1.60;1.50;;;14.00;99.90;;;;;;5204995;28;20025;-70
2023/04/16 13:34:22;;;;;;;1.27;1.17;;;14.40;1.00;;;;;;5227173;28;20036;-73